createdAt,value
2023-04-13T00:02:29.254Z,9.73
2023-04-13T00:07:34.084Z,9.68
2023-04-13T00:12:41.068Z,9.64
2023-04-13T00:17:45.696Z,9.60
2023-04-13T00:22:49.700Z,9.53
2023-04-13T00:27:54.187Z,9.44
2023-04-13T00:32:57.466Z,9.38
2023-04-13T00:38:00.954Z,9.32
2023-04-13T00:43:05.802Z,9.31
2023-04-13T00:48:14.191Z,9.28
2023-04-13T00:53:18.673Z,9.24
2023-04-13T00:58:23.555Z,9.18
2023-04-13T01:03:27.890Z,9.17
2023-04-13T01:08:38.149Z,9.16
2023-04-13T01:13:48.821Z,9.20
2023-04-13T01:18:55.908Z,9.24
2023-04-13T01:24:18.207Z,9.30
2023-04-13T01:29:24.586Z,9.34
2023-04-13T01:34:29.147Z,9.29
2023-04-13T01:39:33.369Z,9.20
2023-04-13T01:44:39.123Z,9.16
2023-04-13T01:49:46.640Z,9.16
2023-04-13T01:54:53.418Z,9.15
2023-04-13T01:59:58.955Z,9.12
2023-04-13T02:05:02.108Z,9.05
2023-04-13T02:10:06.551Z,9.00
2023-04-13T02:15:12.702Z,9.01
2023-04-13T02:20:16.372Z,9.02
2023-04-13T02:25:19.837Z,9.04
2023-04-13T02:30:24.950Z,9.02
2023-04-13T02:35:28.522Z,9.05
2023-04-13T02:40:31.896Z,9.02
2023-04-13T02:45:36.786Z,9.02
2023-04-13T02:50:40.175Z,8.98
2023-04-13T02:55:43.386Z,8.95
2023-04-13T03:00:48.690Z,8.93
2023-04-13T03:05:52.676Z,8.87
2023-04-13T03:10:55.816Z,8.80
2023-04-13T03:16:02.163Z,8.80
2023-04-13T03:21:07.013Z,8.78
2023-04-13T03:26:14.128Z,8.80
2023-04-13T03:31:18.966Z,8.79
2023-04-13T03:36:22.112Z,8.81
2023-04-13T03:41:26.685Z,8.78
2023-04-13T03:46:33.320Z,8.75
2023-04-13T03:51:37.499Z,8.78
2023-04-13T03:56:41.386Z,8.79
2023-04-13T04:01:46.270Z,8.83
2023-04-13T04:06:49.956Z,8.86
2023-04-13T04:11:54.243Z,8.87
2023-04-13T04:16:58.906Z,8.86
2023-04-13T04:22:04.078Z,8.80
2023-04-13T04:27:08.039Z,8.77
2023-04-13T04:32:13.311Z,8.78
2023-04-13T04:37:20.665Z,8.78
2023-04-13T04:42:25.564Z,8.77
2023-04-13T04:47:30.825Z,8.78
2023-04-13T04:52:34.893Z,8.81
2023-04-13T04:57:47.994Z,8.91
2023-04-13T05:02:52.874Z,9.07
2023-04-13T05:07:56.438Z,9.20
2023-04-13T05:13:02.388Z,9.33
2023-04-13T05:18:07.531Z,9.50
2023-04-13T05:23:11.573Z,9.57
2023-04-13T05:28:15.068Z,9.54
2023-04-13T05:33:24.953Z,9.56
2023-04-13T05:38:39.484Z,9.60
2023-04-13T05:43:44.623Z,9.63
2023-04-13T05:48:55.571Z,9.68
2023-04-13T05:53:59.440Z,9.71
2023-04-13T05:59:05.906Z,9.77
2023-04-13T06:04:12.078Z,9.81
2023-04-13T06:09:15.847Z,9.88
2023-04-13T06:14:20.834Z,9.92
2023-04-13T06:19:28.261Z,9.99
2023-04-13T06:24:32.579Z,10.09
2023-04-13T06:29:37.842Z,10.16
2023-04-13T06:34:42.611Z,10.21
2023-04-13T06:39:46.236Z,10.26
2023-04-13T06:44:49.615Z,10.38
2023-04-13T06:49:55.098Z,10.48
2023-04-13T06:54:59.142Z,10.62
2023-04-13T07:00:02.410Z,10.85
2023-04-13T07:05:08.436Z,10.98
2023-04-13T07:10:12.140Z,11.21
2023-04-13T07:15:16.081Z,11.43
2023-04-13T07:20:22.348Z,11.95
2023-04-13T07:25:25.525Z,12.56
2023-04-13T07:30:28.810Z,13.51
2023-04-13T07:35:34.245Z,13.95
2023-04-13T07:40:41.167Z,14.71
2023-04-13T07:45:44.731Z,14.91
2023-04-13T07:50:49.285Z,14.58
2023-04-13T07:55:54.049Z,14.64
2023-04-13T08:00:57.502Z,15.11
2023-04-13T08:06:02.752Z,15.37
2023-04-13T08:11:06.279Z,16.10
2023-04-13T08:16:11.876Z,16.81
2023-04-13T08:21:17.039Z,17.35
2023-04-13T08:26:23.126Z,17.72
2023-04-13T08:31:27.118Z,17.10
2023-04-13T08:36:32.066Z,17.10
2023-04-13T08:41:39.819Z,17.26
2023-04-13T08:46:47.645Z,17.62
2023-04-13T08:51:53.287Z,17.44
2023-04-13T08:56:57.897Z,17.72
2023-04-13T09:02:04.951Z,17.62
2023-04-13T09:07:17.408Z,17.50
2023-04-13T09:12:20.823Z,17.45
2023-04-13T09:17:27.820Z,17.31
2023-04-13T09:22:33.424Z,17.60
2023-04-13T09:27:37.241Z,17.27
2023-04-13T09:32:40.565Z,17.07
2023-04-13T09:37:48.029Z,17.02
2023-04-13T09:42:59.266Z,17.33
2023-04-13T09:48:03.607Z,17.40
2023-04-13T09:53:10.832Z,17.40
2023-04-13T09:58:16.870Z,17.25
2023-04-13T10:03:22.533Z,17.33
2023-04-13T10:08:38.032Z,17.62
2023-04-13T10:13:49.533Z,18.05
2023-04-13T10:19:00.909Z,18.04
2023-04-13T10:29:16.965Z,17.62
2023-04-13T10:34:26.503Z,17.13
2023-04-13T10:39:34.065Z,16.86
2023-04-13T10:44:47.620Z,16.58
2023-04-13T10:49:52.320Z,16.25
2023-04-13T10:54:58.891Z,16.04
2023-04-13T11:00:02.076Z,15.85
2023-04-13T11:05:06.251Z,15.86
2023-04-13T11:10:13.079Z,15.84
2023-04-13T11:15:21.084Z,15.95
2023-04-13T11:20:34.778Z,16.02
2023-04-13T11:25:39.587Z,15.80
2023-04-13T11:30:43.499Z,15.81
2023-04-13T11:35:50.096Z,15.89
2023-04-13T11:41:12.577Z,15.95
2023-04-13T11:46:25.441Z,15.70
2023-04-13T11:51:29.492Z,15.74
2023-04-13T11:56:34.288Z,15.56
2023-04-13T12:01:44.835Z,15.50
2023-04-13T12:06:53.193Z,15.50
2023-04-13T12:12:29.829Z,15.40
2023-04-13T12:22:50.953Z,15.69
2023-04-13T12:27:57.266Z,15.67
2023-04-13T12:33:01.157Z,15.91
2023-04-13T12:38:05.322Z,16.06
2023-04-13T12:43:10.078Z,16.10
2023-04-13T12:48:13.609Z,16.05
2023-04-13T12:53:17.117Z,16.02
2023-04-13T12:58:21.834Z,16.01
2023-04-13T13:03:25.221Z,16.00
2023-04-13T13:08:28.573Z,15.99
2023-04-13T13:13:33.246Z,15.96
2023-04-13T13:18:49.634Z,16.00
2023-04-13T13:23:53.939Z,16.31
2023-04-13T13:29:00.019Z,16.23
2023-04-13T13:34:04.847Z,16.04
2023-04-13T13:39:08.119Z,15.96
2023-04-13T13:44:13.110Z,15.99
2023-04-13T13:49:16.686Z,16.05
2023-04-13T13:54:21.062Z,16.06
2023-04-13T13:59:26.049Z,16.12
2023-04-13T14:04:29.713Z,16.29
2023-04-13T14:09:33.992Z,16.16
2023-04-13T14:14:38.879Z,15.98
2023-04-13T14:19:42.500Z,16.14
2023-04-13T14:24:46.558Z,16.22
2023-04-13T14:29:52.345Z,16.21
2023-04-13T14:34:56.772Z,16.11
2023-04-13T14:40:00.290Z,15.93
2023-04-13T14:45:06.826Z,15.91
2023-04-13T14:50:11.812Z,15.77
2023-04-13T14:55:16.855Z,15.79
2023-04-13T15:00:26.633Z,15.70
2023-04-13T15:05:31.515Z,15.65
2023-04-13T15:10:36.095Z,15.62
2023-04-13T15:15:41.654Z,15.52
2023-04-13T15:20:45.130Z,15.64
2023-04-13T15:25:48.464Z,15.70
2023-04-13T15:30:53.323Z,15.71
2023-04-13T15:36:07.828Z,15.58
2023-04-13T15:41:11.729Z,15.40
2023-04-13T15:46:16.757Z,15.28
2023-04-13T15:51:20.410Z,15.21
2023-04-13T15:56:26.530Z,15.17
2023-04-13T16:01:58.424Z,15.09
2023-04-13T16:07:12.950Z,15.04
2023-04-13T16:12:17.785Z,15.02
2023-04-13T16:17:31.136Z,14.95
2023-04-13T16:22:36.467Z,14.85
2023-04-13T16:27:41.774Z,14.82
2023-04-13T16:32:47.315Z,14.79
2023-04-13T16:37:50.471Z,14.69
2023-04-13T16:42:53.881Z,14.69
2023-04-13T16:47:58.774Z,14.62
2023-04-13T16:53:02.048Z,14.57
2023-04-13T16:58:07.431Z,14.54
2023-04-13T17:03:15.053Z,14.40
2023-04-13T17:08:18.484Z,14.33
2023-04-13T17:13:22.369Z,14.22
2023-04-13T17:18:30.285Z,14.10
2023-04-13T17:23:33.915Z,13.98
2023-04-13T17:28:37.143Z,13.88
2023-04-13T17:33:42.021Z,13.77
2023-04-13T17:38:46.448Z,13.63
2023-04-13T17:43:49.684Z,13.50
2023-04-13T17:48:54.515Z,13.42
2023-04-13T17:53:57.861Z,13.30
2023-04-13T17:59:01.795Z,13.20
2023-04-13T18:04:06.986Z,13.10
2023-04-13T18:09:12.954Z,13.00
2023-04-13T18:14:16.556Z,12.95
2023-04-13T18:19:21.398Z,12.90
2023-04-13T18:24:24.922Z,12.84
2023-04-13T18:29:28.214Z,12.83
2023-04-13T18:34:34.424Z,12.81
2023-04-13T18:39:39.643Z,12.78
2023-04-13T18:44:42.784Z,12.73
2023-04-13T18:49:47.622Z,12.67
2023-04-13T18:54:51.555Z,12.59
2023-04-13T18:59:56.970Z,12.48
2023-04-13T19:05:01.786Z,12.39
2023-04-13T19:10:05.876Z,12.31
2023-04-13T19:15:09.780Z,12.23
2023-04-13T19:20:14.536Z,12.18
2023-04-13T19:25:18.257Z,12.11
2023-04-13T19:30:21.959Z,12.09
2023-04-13T19:35:27.326Z,12.04
2023-04-13T19:40:30.728Z,12.03
2023-04-13T19:45:34.126Z,11.99
2023-04-13T19:50:38.950Z,11.94
2023-04-13T19:55:42.324Z,11.83
2023-04-13T20:00:47.381Z,11.72
2023-04-13T20:05:52.720Z,11.62
2023-04-13T20:10:57.908Z,11.56
2023-04-13T20:16:02.583Z,11.50
2023-04-13T20:21:08.229Z,11.43
2023-04-13T20:26:12.232Z,11.39
2023-04-13T20:31:15.871Z,11.33
2023-04-13T20:36:21.721Z,11.29
2023-04-13T20:41:25.055Z,11.24
2023-04-13T20:46:34.687Z,11.18
2023-04-13T20:51:39.881Z,11.12
2023-04-13T20:56:44.081Z,11.06
2023-04-13T21:01:49.019Z,11.00
2023-04-13T21:06:55.534Z,10.93
2023-04-13T21:11:59.344Z,10.86
2023-04-13T21:17:02.870Z,10.78
2023-04-13T21:22:07.740Z,10.72
2023-04-13T21:27:11.105Z,10.69
2023-04-13T21:32:14.774Z,10.64
2023-04-13T21:37:19.689Z,10.60
2023-04-13T21:42:23.043Z,10.58
2023-04-13T21:47:26.599Z,10.54
2023-04-13T21:52:31.705Z,10.52
2023-04-13T21:57:34.910Z,10.48
2023-04-13T22:02:38.235Z,10.45
2023-04-13T22:07:43.597Z,10.44
2023-04-13T22:12:47.657Z,10.42
2023-04-13T22:17:51.161Z,10.39
2023-04-13T22:22:55.889Z,10.37
2023-04-13T22:27:59.171Z,10.34
2023-04-13T22:33:03.669Z,10.31
2023-04-13T22:38:08.498Z,10.27
2023-04-13T22:43:12.011Z,10.24
2023-04-13T22:48:15.519Z,10.20
2023-04-13T22:53:20.537Z,10.13
2023-04-13T22:58:23.844Z,10.10
2023-04-13T23:03:27.685Z,10.07
2023-04-13T23:08:32.656Z,10.02
2023-04-13T23:13:36.803Z,9.97
2023-04-13T23:18:40.096Z,9.99
2023-04-13T23:23:44.976Z,10.03
2023-04-13T23:28:48.496Z,10.06
2023-04-13T23:33:53.473Z,10.08
2023-04-13T23:38:59.796Z,10.06
2023-04-13T23:44:03.294Z,10.05
2023-04-13T23:49:06.763Z,10.02
2023-04-13T23:54:12.199Z,10.02
2023-04-13T23:59:15.672Z,10.02
